createdAt,value
2019-05-07T00:01:33.917Z,29.02
2019-05-07T00:04:02.355Z,34.40
2019-05-07T00:06:32.572Z,35.13
2019-05-07T00:09:03.224Z,27.90
2019-05-07T00:11:33.097Z,25.75
2019-05-07T00:14:03.143Z,26.57
2019-05-07T00:16:32.510Z,27.77
2019-05-07T00:19:02.073Z,27.58
2019-05-07T00:21:32.578Z,22.67
2019-05-07T00:24:02.239Z,22.93
2019-05-07T00:26:32.042Z,26.25
2019-05-07T00:29:02.256Z,25.17
2019-05-07T00:31:32.605Z,24.00
2019-05-07T00:34:14.995Z,24.65
2019-05-07T00:36:45.110Z,23.35
2019-05-07T00:39:27.247Z,21.60
2019-05-07T00:42:12.995Z,25.68
2019-05-07T00:45:13.261Z,23.70
2019-05-07T00:47:28.999Z,24.25
2019-05-07T00:49:59.419Z,23.38
2019-05-07T00:52:29.084Z,25.35
2019-05-07T00:54:57.547Z,22.62
2019-05-07T00:57:26.315Z,26.20
2019-05-07T00:59:55.108Z,26.57
2019-05-07T01:02:23.900Z,21.75
2019-05-07T01:04:53.241Z,20.75
2019-05-07T01:07:23.032Z,25.40
2019-05-07T01:09:52.490Z,22.15
2019-05-07T01:12:22.177Z,28.47
2019-05-07T01:14:52.887Z,21.25
2019-05-07T01:17:22.763Z,22.50
2019-05-07T01:19:53.194Z,21.73
2019-05-07T01:22:23.766Z,24.35
2019-05-07T01:24:53.736Z,23.18
2019-05-07T01:27:22.827Z,23.00
2019-05-07T01:29:52.829Z,22.22
2019-05-07T01:32:23.330Z,25.02
2019-05-07T01:35:02.971Z,25.23
2019-05-07T01:37:32.590Z,34.05
2019-05-07T01:40:03.046Z,24.25
2019-05-07T01:42:32.782Z,21.65
2019-05-07T01:45:02.517Z,22.93
2019-05-07T01:47:33.016Z,20.65
2019-05-07T01:50:02.987Z,26.73
2019-05-07T01:52:33.135Z,25.70
2019-05-07T01:55:03.290Z,22.82
2019-05-07T01:57:32.644Z,23.95
2019-05-07T02:00:02.557Z,25.68
2019-05-07T02:02:32.978Z,24.43
2019-05-07T02:05:19.287Z,22.82
2019-05-07T02:07:49.407Z,22.48
2019-05-07T02:10:28.939Z,24.18
2019-05-07T02:12:57.415Z,24.27
2019-05-07T02:15:25.873Z,21.90
2019-05-07T02:17:54.343Z,21.85
2019-05-07T02:20:22.795Z,22.45
2019-05-07T02:22:53.250Z,21.93
2019-05-07T02:25:22.207Z,23.30
2019-05-07T02:27:52.820Z,21.00
2019-05-07T02:30:23.647Z,20.92
2019-05-07T02:32:54.062Z,23.25
2019-05-07T02:35:23.495Z,22.02
2019-05-07T02:37:56.821Z,21.65
2019-05-07T02:40:33.870Z,24.98
2019-05-07T02:43:03.232Z,23.25
2019-05-07T02:45:33.512Z,22.35
2019-05-07T02:48:03.489Z,21.33
2019-05-07T02:50:35.441Z,20.77
2019-05-07T02:53:05.609Z,18.67
2019-05-07T02:55:43.514Z,21.87
2019-05-07T02:58:13.744Z,20.68
2019-05-07T03:00:43.665Z,18.90
2019-05-07T03:03:13.736Z,19.32
2019-05-07T03:05:43.402Z,25.17
2019-05-07T03:08:13.466Z,17.87
2019-05-07T03:10:44.187Z,18.52
2019-05-07T03:13:13.728Z,20.40
2019-05-07T03:15:43.547Z,17.82
2019-05-07T03:18:13.889Z,21.12
2019-05-07T03:20:45.993Z,19.12
2019-05-07T03:23:16.164Z,20.37
2019-05-07T03:25:49.224Z,18.67
2019-05-07T03:28:18.840Z,20.32
2019-05-07T03:31:06.385Z,18.45
2019-05-07T03:33:39.997Z,27.07
2019-05-07T03:36:09.401Z,24.35
2019-05-07T03:38:38.167Z,20.85
2019-05-07T03:41:09.293Z,19.77
2019-05-07T03:43:37.834Z,20.48
2019-05-07T03:46:13.802Z,27.07
2019-05-07T03:51:13.796Z,24.90
2019-05-07T03:53:43.724Z,20.32
2019-05-07T03:56:13.237Z,19.42
2019-05-07T03:58:43.326Z,24.05
2019-05-07T04:01:13.380Z,23.27
2019-05-07T04:03:44.723Z,25.25
2019-05-07T04:06:12.967Z,22.48
2019-05-07T04:08:43.347Z,24.18
2019-05-07T04:11:13.915Z,20.08
2019-05-07T04:13:44.092Z,19.95
2019-05-07T04:16:13.556Z,25.10
2019-05-07T04:18:43.656Z,18.35
2019-05-07T04:21:14.240Z,17.98
2019-05-07T04:23:43.878Z,19.75
2019-05-07T04:26:17.046Z,26.27
2019-05-07T04:28:53.713Z,20.52
2019-05-07T04:31:23.012Z,26.65
2019-05-07T04:33:53.171Z,19.90
2019-05-07T04:36:23.196Z,20.23
2019-05-07T04:38:53.232Z,23.07
2019-05-07T04:41:23.416Z,19.98
2019-05-07T04:43:54.059Z,19.35
2019-05-07T04:46:23.718Z,22.48
2019-05-07T04:48:53.135Z,20.35
2019-05-07T04:51:23.692Z,19.48
2019-05-07T04:53:54.079Z,22.82
2019-05-07T04:56:23.891Z,19.37
2019-05-07T04:58:54.075Z,20.05
2019-05-07T05:01:24.187Z,19.95
2019-05-07T05:03:54.081Z,18.07
2019-05-07T05:06:24.211Z,19.05
2019-05-07T05:08:56.305Z,20.85
2019-05-07T05:11:24.188Z,18.98
2019-05-07T05:13:53.368Z,16.93
2019-05-07T05:16:26.470Z,14.35
2019-05-07T05:18:57.804Z,17.52
2019-05-07T05:21:45.963Z,21.77
2019-05-07T05:24:18.995Z,17.77
2019-05-07T05:26:47.541Z,19.20
2019-05-07T05:29:19.391Z,19.32
2019-05-07T05:31:48.185Z,23.38
2019-05-07T05:34:16.896Z,54.20
2019-05-07T05:36:45.663Z,33.63
2019-05-07T05:39:14.461Z,20.95
2019-05-07T05:41:44.723Z,19.05
2019-05-07T05:44:14.905Z,32.98
2019-05-07T05:46:43.450Z,27.17
2019-05-07T05:49:12.298Z,23.67
2019-05-07T05:51:45.893Z,20.65
2019-05-07T05:54:24.879Z,20.40
2019-05-07T05:57:13.363Z,20.40
2019-05-07T06:00:02.023Z,19.02
2019-05-07T06:02:32.486Z,23.50
2019-05-07T06:05:19.319Z,27.27
2019-05-07T06:07:49.442Z,20.10
2019-05-07T06:10:19.552Z,26.55
2019-05-07T06:12:49.731Z,29.25
2019-05-07T06:15:23.951Z,23.50
2019-05-07T06:17:56.469Z,22.32
2019-05-07T06:20:26.831Z,21.05
2019-05-07T06:23:13.541Z,21.65
2019-05-07T06:25:45.399Z,24.70
2019-05-07T06:28:14.209Z,18.27
2019-05-07T06:30:42.984Z,21.75
2019-05-07T06:33:12.394Z,21.00
2019-05-07T06:35:42.853Z,19.20
2019-05-07T06:38:12.500Z,22.42
2019-05-07T06:40:45.615Z,26.33
2019-05-07T06:43:24.644Z,20.92
2019-05-07T06:45:56.114Z,21.60
2019-05-07T06:48:37.891Z,22.17
2019-05-07T06:50:57.817Z,19.57
2019-05-07T06:53:33.377Z,19.32
2019-05-07T06:56:04.233Z,23.32
2019-05-07T06:58:34.700Z,18.82
2019-05-07T07:01:16.321Z,20.65
2019-05-07T07:03:58.768Z,16.73
2019-05-07T07:06:32.188Z,18.30
2019-05-07T07:09:22.268Z,20.52
2019-05-07T07:12:08.051Z,18.20
2019-05-07T07:14:36.588Z,18.23
2019-05-07T07:17:05.320Z,17.75
2019-05-07T07:19:36.139Z,17.15
2019-05-07T07:22:04.057Z,21.80
2019-05-07T07:24:33.005Z,19.67
2019-05-07T07:27:02.483Z,20.95
2019-05-07T07:29:33.088Z,23.10
2019-05-07T07:32:03.605Z,20.32
2019-05-07T07:34:33.789Z,22.73
2019-05-07T07:37:14.960Z,20.23
2019-05-07T07:39:40.111Z,22.75
2019-05-07T07:42:12.256Z,20.40
2019-05-07T07:44:42.578Z,22.75
2019-05-07T07:47:12.879Z,24.77
2019-05-07T07:49:42.164Z,25.65
2019-05-07T07:52:13.518Z,25.17
2019-05-07T07:54:42.896Z,25.08
2019-05-07T07:57:13.435Z,23.60
2019-05-07T07:59:58.941Z,27.27
2019-05-07T08:02:33.135Z,26.40
2019-05-07T08:05:02.176Z,22.17
2019-05-07T08:07:32.995Z,23.80
2019-05-07T08:10:02.600Z,28.65
2019-05-07T08:12:32.646Z,31.73
2019-05-07T08:15:14.537Z,23.98
2019-05-07T08:17:32.632Z,31.40
2019-05-07T08:20:02.573Z,26.35
2019-05-07T08:22:32.992Z,25.43
2019-05-07T08:25:01.937Z,24.55
2019-05-07T08:27:32.520Z,25.27
2019-05-07T08:30:02.960Z,23.18
2019-05-07T08:32:42.399Z,23.55
2019-05-07T08:35:14.985Z,25.82
2019-05-07T08:37:43.851Z,22.58
2019-05-07T08:40:12.941Z,23.35
2019-05-07T08:42:41.977Z,24.87
2019-05-07T08:45:29.402Z,23.12
2019-05-07T08:48:01.993Z,24.75
2019-05-07T08:50:32.570Z,24.65
2019-05-07T08:53:02.807Z,21.77
2019-05-07T08:55:32.251Z,22.80
2019-05-07T08:58:02.234Z,20.60
2019-05-07T09:00:32.620Z,22.75
2019-05-07T09:03:02.158Z,19.92
2019-05-07T09:05:32.350Z,22.52
2019-05-07T09:08:02.294Z,19.95
2019-05-07T09:10:32.552Z,24.30
2019-05-07T09:13:02.901Z,20.20
2019-05-07T09:15:32.119Z,21.02
2019-05-07T09:18:02.013Z,22.98
2019-05-07T09:20:32.181Z,24.43
2019-05-07T09:23:02.077Z,21.97
2019-05-07T09:25:32.576Z,27.15
2019-05-07T09:28:02.640Z,23.05
2019-05-07T09:30:42.132Z,23.32
2019-05-07T09:33:12.655Z,27.55
2019-05-07T09:35:43.091Z,31.12
2019-05-07T09:38:12.179Z,30.95
2019-05-07T09:40:42.180Z,28.62
2019-05-07T09:43:12.635Z,32.20
2019-05-07T09:45:42.070Z,26.57
2019-05-07T09:48:11.970Z,24.40
2019-05-07T09:50:42.791Z,23.02
2019-05-07T09:53:12.794Z,24.72
2019-05-07T09:55:42.547Z,23.62
2019-05-07T09:58:12.589Z,25.05
2019-05-07T10:00:42.477Z,24.87
2019-05-07T10:03:12.709Z,24.20
2019-05-07T10:05:42.689Z,22.85
2019-05-07T10:08:12.923Z,23.98
2019-05-07T10:10:42.498Z,24.47
2019-05-07T10:13:27.843Z,22.82
2019-05-07T10:15:56.619Z,21.82
2019-05-07T10:18:25.143Z,21.07
2019-05-07T10:20:53.860Z,18.60
2019-05-07T10:23:23.906Z,19.37
2019-05-07T10:25:53.524Z,19.35
2019-05-07T10:28:22.865Z,18.27
2019-05-07T10:30:52.267Z,27.02
2019-05-07T10:33:22.854Z,22.02
2019-05-07T10:35:52.903Z,19.90
2019-05-07T10:38:22.010Z,22.70
2019-05-07T10:40:50.899Z,19.67
2019-05-07T10:43:19.449Z,21.62
2019-05-07T10:45:49.623Z,27.65
2019-05-07T10:48:23.009Z,20.25
2019-05-07T10:51:02.598Z,21.17
2019-05-07T10:53:32.038Z,17.82
2019-05-07T10:56:02.536Z,21.12
2019-05-07T10:58:32.020Z,19.50
2019-05-07T11:01:02.943Z,20.82
2019-05-07T11:03:32.391Z,17.00
2019-05-07T11:06:01.229Z,17.90
2019-05-07T11:08:29.772Z,19.67
2019-05-07T11:10:58.227Z,21.52
2019-05-07T11:13:27.002Z,22.60
2019-05-07T11:15:57.540Z,32.80
2019-05-07T11:18:36.943Z,24.43
2019-05-07T11:21:06.420Z,21.02
2019-05-07T11:23:34.895Z,19.70
2019-05-07T11:26:03.355Z,20.57
2019-05-07T11:28:32.575Z,27.30
2019-05-07T11:31:02.051Z,22.02
2019-05-07T11:33:32.544Z,19.75
2019-05-07T11:36:02.068Z,20.25
2019-05-07T11:38:33.170Z,23.50
2019-05-07T11:41:02.300Z,23.47
2019-05-07T11:43:32.879Z,18.85
2019-05-07T11:46:09.036Z,21.50
2019-05-07T11:48:39.468Z,17.67
2019-05-07T11:51:16.535Z,20.43
2019-05-07T11:54:03.157Z,16.77
2019-05-07T11:56:32.825Z,20.25
2019-05-07T11:59:02.693Z,16.35
2019-05-07T12:01:43.529Z,18.30
2019-05-07T12:04:04.706Z,20.37
2019-05-07T12:06:33.163Z,23.57
2019-05-07T12:09:03.053Z,20.43
2019-05-07T12:11:32.728Z,18.10
2019-05-07T12:14:02.079Z,17.92
2019-05-07T12:16:32.052Z,16.70
2019-05-07T12:19:02.252Z,16.65
2019-05-07T12:21:31.237Z,18.75
2019-05-07T12:24:02.072Z,17.48
2019-05-07T12:26:31.375Z,17.20
2019-05-07T12:28:59.846Z,18.32
2019-05-07T12:31:35.917Z,16.90
2019-05-07T12:34:06.041Z,14.28
2019-05-07T12:36:34.936Z,17.73
2019-05-07T12:39:05.351Z,16.15
2019-05-07T12:41:34.883Z,19.65
2019-05-07T12:44:06.302Z,16.67
2019-05-07T12:46:35.564Z,18.67
2019-05-07T12:49:04.579Z,17.42
2019-05-07T12:51:37.780Z,16.95
2019-05-07T12:54:22.678Z,19.17
2019-05-07T12:56:51.997Z,17.00
2019-05-07T12:59:21.832Z,17.15
2019-05-07T13:01:53.872Z,16.97
2019-05-07T13:04:24.047Z,18.98
2019-05-07T13:07:08.902Z,16.55
2019-05-07T13:09:37.399Z,15.60
2019-05-07T13:12:07.509Z,14.45
2019-05-07T13:14:36.040Z,12.35
2019-05-07T13:17:04.679Z,17.55
2019-05-07T13:19:33.215Z,14.65
2019-05-07T13:22:02.428Z,18.42
2019-05-07T13:24:32.108Z,15.63
2019-05-07T13:27:03.117Z,17.55
2019-05-07T13:29:32.644Z,14.63
2019-05-07T13:32:03.369Z,14.30
2019-05-07T13:34:34.173Z,16.65
2019-05-07T13:37:04.499Z,16.07
2019-05-07T13:39:35.826Z,16.10
2019-05-07T13:42:24.211Z,24.80
2019-05-07T13:44:54.618Z,26.05
2019-05-07T13:47:25.247Z,19.55
2019-05-07T13:49:54.443Z,34.15
2019-05-07T13:52:26.103Z,26.75
2019-05-07T13:54:55.552Z,17.65
2019-05-07T13:57:24.168Z,14.20
2019-05-07T13:59:53.257Z,14.90
2019-05-07T14:02:23.596Z,19.17
2019-05-07T14:04:52.701Z,17.70
2019-05-07T14:07:22.124Z,17.10
2019-05-07T14:09:52.666Z,15.80
2019-05-07T14:12:22.971Z,18.67
2019-05-07T14:14:53.111Z,15.53
2019-05-07T14:17:22.536Z,15.65
2019-05-07T14:19:52.809Z,13.65
2019-05-07T14:22:22.493Z,14.63
2019-05-07T14:24:52.942Z,16.97
2019-05-07T14:27:21.799Z,14.68
2019-05-07T14:29:52.068Z,16.87
2019-05-07T14:32:22.335Z,17.00
2019-05-07T14:35:07.906Z,16.27
2019-05-07T14:37:41.852Z,13.58
2019-05-07T14:40:12.923Z,16.23
2019-05-07T14:42:44.844Z,16.55
2019-05-07T14:45:13.947Z,16.37
2019-05-07T14:47:44.789Z,15.70
2019-05-07T14:50:13.359Z,15.83
2019-05-07T14:52:43.441Z,17.25
2019-05-07T14:55:12.987Z,14.50
2019-05-07T14:57:42.219Z,16.25
2019-05-07T15:00:12.297Z,12.95
2019-05-07T15:02:42.102Z,14.95
2019-05-07T15:05:12.103Z,18.32
2019-05-07T15:07:40.736Z,17.73
2019-05-07T15:10:09.728Z,21.23
2019-05-07T15:12:38.203Z,17.48
2019-05-07T15:15:07.593Z,17.20
2019-05-07T15:17:38.285Z,18.87
2019-05-07T15:20:07.364Z,18.00
2019-05-07T15:22:50.105Z,16.67
2019-05-07T15:25:19.908Z,17.87
2019-05-07T15:27:50.091Z,18.75
2019-05-07T15:30:19.107Z,17.20
2019-05-07T15:32:48.991Z,17.90
2019-05-07T15:35:17.462Z,19.35
2019-05-07T15:37:46.228Z,17.02
2019-05-07T15:40:14.967Z,15.45
2019-05-07T15:42:43.418Z,14.68
2019-05-07T15:45:12.668Z,18.20
2019-05-07T15:47:43.360Z,16.17
2019-05-07T15:50:12.693Z,16.25
2019-05-07T15:52:58.054Z,17.07
2019-05-07T15:55:19.644Z,19.67
2019-05-07T15:57:48.462Z,16.73
2019-05-07T16:00:19.123Z,17.80
2019-05-07T16:02:53.588Z,18.62
2019-05-07T16:05:22.452Z,17.10
2019-05-07T16:07:51.451Z,16.90
2019-05-07T16:10:23.008Z,17.95
2019-05-07T16:12:53.168Z,17.00
2019-05-07T16:15:22.581Z,18.30
2019-05-07T16:17:58.843Z,17.40
2019-05-07T16:20:27.385Z,14.58
2019-05-07T16:23:13.924Z,16.07
2019-05-07T16:25:32.866Z,16.82
2019-05-07T16:28:04.435Z,19.23
2019-05-07T16:30:32.387Z,15.98
2019-05-07T16:33:02.643Z,16.20
2019-05-07T16:35:32.024Z,17.25
2019-05-07T16:38:00.748Z,14.38
2019-05-07T16:40:29.215Z,14.95
2019-05-07T16:42:57.666Z,16.07
2019-05-07T16:45:26.143Z,17.87
2019-05-07T16:47:54.895Z,18.05
2019-05-07T16:50:23.783Z,16.25
2019-05-07T16:52:52.565Z,14.23
2019-05-07T16:55:22.417Z,15.53
2019-05-07T16:58:05.102Z,17.12
2019-05-07T17:00:44.343Z,17.27
2019-05-07T17:03:16.094Z,18.55
2019-05-07T17:05:44.887Z,14.18
2019-05-07T17:08:15.319Z,14.63
2019-05-07T17:10:44.367Z,17.73
2019-05-07T17:13:12.810Z,15.25
2019-05-07T17:15:54.720Z,16.00
2019-05-07T17:18:25.179Z,17.05
2019-05-07T17:20:55.506Z,19.07
2019-05-07T17:23:25.346Z,15.70
2019-05-07T17:25:54.264Z,16.65
2019-05-07T17:28:22.989Z,16.67
2019-05-07T17:30:52.484Z,16.73
2019-05-07T17:33:22.876Z,17.35
2019-05-07T17:35:51.886Z,14.40
2019-05-07T17:38:22.874Z,18.50
2019-05-07T17:40:52.148Z,19.05
2019-05-07T17:43:23.195Z,14.73
2019-05-07T17:45:52.245Z,16.82
2019-05-07T17:48:22.995Z,13.88
2019-05-07T17:50:53.195Z,16.57
2019-05-07T17:53:22.509Z,18.65
2019-05-07T17:55:52.907Z,17.25
2019-05-07T17:58:21.331Z,16.90
2019-05-07T18:00:52.903Z,13.80
2019-05-07T18:03:35.319Z,14.85
2019-05-07T18:06:06.059Z,14.60
2019-05-07T18:08:34.694Z,15.83
2019-05-07T18:11:17.434Z,14.75
2019-05-07T18:13:33.971Z,18.60
2019-05-07T18:16:04.403Z,15.45
2019-05-07T18:18:33.002Z,18.15
2019-05-07T18:21:02.214Z,16.12
2019-05-07T18:23:32.107Z,16.32
2019-05-07T18:26:01.211Z,15.08
2019-05-07T18:28:29.718Z,16.02
2019-05-07T18:30:58.915Z,18.05
2019-05-07T18:33:33.597Z,14.63
2019-05-07T18:36:02.962Z,16.42
2019-05-07T18:38:32.967Z,17.40
2019-05-07T18:41:02.684Z,16.42
2019-05-07T18:43:33.123Z,17.50
2019-05-07T18:46:02.446Z,15.53
2019-05-07T18:48:31.043Z,15.30
2019-05-07T18:50:59.570Z,15.85
2019-05-07T18:53:28.467Z,16.40
2019-05-07T18:55:56.917Z,16.30
2019-05-07T18:58:25.763Z,23.45
2019-05-07T19:01:02.717Z,16.75
2019-05-07T19:03:32.465Z,19.48
2019-05-07T19:06:02.774Z,17.62
2019-05-07T19:08:32.644Z,14.98
2019-05-07T19:11:05.779Z,18.77
2019-05-07T19:13:33.931Z,17.25
2019-05-07T19:16:02.955Z,16.48
2019-05-07T19:18:32.295Z,17.17
2019-05-07T19:21:00.874Z,16.17
2019-05-07T19:23:29.347Z,16.48
2019-05-07T19:25:58.067Z,18.57
2019-05-07T19:28:26.779Z,19.52
2019-05-07T19:30:55.247Z,18.60
2019-05-07T19:33:27.018Z,19.57
2019-05-07T19:35:54.215Z,15.88
2019-05-07T19:38:22.990Z,15.43
2019-05-07T19:40:52.807Z,18.30
2019-05-07T19:43:21.720Z,17.95
2019-05-07T19:45:52.243Z,18.57
2019-05-07T19:48:20.439Z,20.77
2019-05-07T19:50:48.903Z,18.50
2019-05-07T19:53:20.378Z,19.25
2019-05-07T19:56:04.527Z,18.85
2019-05-07T19:58:33.343Z,20.37
2019-05-07T20:01:04.220Z,17.60
2019-05-07T20:03:32.667Z,18.32
2019-05-07T20:06:02.437Z,19.25
2019-05-07T20:08:32.315Z,17.75
2019-05-07T20:11:15.087Z,19.48
2019-05-07T20:13:43.871Z,18.98
2019-05-07T20:16:14.407Z,18.20
2019-05-07T20:18:43.202Z,20.12
2019-05-07T20:21:12.970Z,20.30
2019-05-07T20:23:43.215Z,20.00
2019-05-07T20:26:12.640Z,21.10
2019-05-07T20:28:41.861Z,18.50
2019-05-07T20:31:12.239Z,19.32
2019-05-07T20:33:42.200Z,18.10
2019-05-07T20:36:11.155Z,21.12
2019-05-07T20:38:39.990Z,19.92
2019-05-07T20:41:08.887Z,20.25
2019-05-07T20:43:37.334Z,21.30
2019-05-07T20:46:06.164Z,22.77
2019-05-07T20:48:34.883Z,24.05
2019-05-07T20:51:03.742Z,20.20
2019-05-07T20:53:52.282Z,22.58
2019-05-07T20:56:25.279Z,22.02
2019-05-07T20:58:54.083Z,19.32
2019-05-07T21:01:23.648Z,20.32
2019-05-07T21:03:52.822Z,19.55
2019-05-07T21:06:22.474Z,21.27
2019-05-07T21:08:51.491Z,25.45
2019-05-07T21:11:19.959Z,23.12
2019-05-07T21:13:48.787Z,21.48
2019-05-07T21:16:17.340Z,21.75
2019-05-07T21:18:46.163Z,24.87
2019-05-07T21:21:14.715Z,22.20
2019-05-07T21:23:43.613Z,21.85
2019-05-07T21:26:13.234Z,21.30
2019-05-07T21:28:43.269Z,21.05
2019-05-07T21:31:12.150Z,23.45
2019-05-07T21:33:42.678Z,24.02
2019-05-07T21:36:12.065Z,26.80
2019-05-07T21:38:42.480Z,24.52
2019-05-07T21:41:12.842Z,24.87
2019-05-07T21:43:44.221Z,21.60
2019-05-07T21:46:12.789Z,24.45
2019-05-07T21:48:41.535Z,25.95
2019-05-07T21:51:12.267Z,25.88
2019-05-07T21:53:42.972Z,27.07
2019-05-07T21:56:31.491Z,27.02
2019-05-07T21:59:03.070Z,30.60
2019-05-07T22:01:33.611Z,29.05
2019-05-07T22:04:02.134Z,28.55
2019-05-07T22:06:30.603Z,30.02
2019-05-07T22:08:59.330Z,25.52
2019-05-07T22:11:27.855Z,25.82
2019-05-07T22:13:56.329Z,25.55
2019-05-07T22:16:25.127Z,25.10
2019-05-07T22:18:53.599Z,30.57
2019-05-07T22:21:22.051Z,28.92
2019-05-07T22:23:52.217Z,34.85
2019-05-07T22:26:25.699Z,25.97
2019-05-07T22:28:53.796Z,25.00
2019-05-07T22:31:32.889Z,27.70
2019-05-07T22:34:22.263Z,28.30
2019-05-07T22:36:52.100Z,30.32
2019-05-07T22:39:22.141Z,31.65
2019-05-07T22:41:50.739Z,33.13
2019-05-07T22:44:22.712Z,32.35
2019-05-07T22:46:49.939Z,27.48
2019-05-07T22:49:18.727Z,28.98
2019-05-07T22:51:47.183Z,31.12
2019-05-07T22:54:16.007Z,31.42
2019-05-07T22:56:58.415Z,34.00
2019-05-07T22:59:26.887Z,31.48
2019-05-07T23:01:55.683Z,23.73
2019-05-07T23:04:24.159Z,28.92
2019-05-07T23:06:54.103Z,33.45
2019-05-07T23:09:22.988Z,26.27
2019-05-07T23:11:52.587Z,27.35
2019-05-07T23:14:22.809Z,29.37
2019-05-07T23:16:54.992Z,32.23
2019-05-07T23:19:22.297Z,27.77
2019-05-07T23:21:52.177Z,32.67
2019-05-07T23:24:22.642Z,34.33
2019-05-07T23:26:53.584Z,33.90
2019-05-07T23:29:22.665Z,32.20
2019-05-07T23:31:52.885Z,38.88
2019-05-07T23:34:22.231Z,27.05
2019-05-07T23:36:53.061Z,32.85
2019-05-07T23:39:23.033Z,33.05
2019-05-07T23:41:59.403Z,35.63
2019-05-07T23:44:28.296Z,38.00
2019-05-07T23:46:58.055Z,37.05
2019-05-07T23:49:26.519Z,34.18
2019-05-07T23:51:55.287Z,38.85
2019-05-07T23:54:24.183Z,35.92
2019-05-07T23:57:05.027Z,36.85
2019-05-07T23:59:23.507Z,33.40
